Time;durP1;ratioP1;P1;durP2;ratioP2;P2;SDS_P1;SDS_P2;PMS_P1;PMS_P2;Temp;Humidity;BMP_temperature;BMP_pressure;BME280_temperature;BME280_humidity;BME280_pressure;Samples;Min_cycle;Max_cycle;Signal;HPM_P1;HPM_P2
2022/06/12 00:00:39;;;;;;;4.30;3.30;;;;;;;16.39;92.38;94407.53;5051408;28;20203;-68
2022/06/12 00:03:09;;;;;;;3.97;3.08;;;;;;;16.48;91.96;94402.56;5050680;28;20697;-69
2022/06/12 00:05:41;;;;;;;7.53;3.92;;;;;;;16.44;92.38;94399.78;5051280;28;20238;-68
2022/06/12 00:08:08;;;;;;;4.55;3.47;;;;;;;16.40;92.84;94403.63;5050486;28;20633;-68
2022/06/12 00:10:39;;;;;;;5.43;3.58;;;;;;;16.32;93.87;94400.00;5051229;28;20227;-68
2022/06/12 00:13:08;;;;;;;5.53;4.03;;;;;;;16.35;94.07;94402.00;5050612;28;20266;-70
2022/06/12 00:15:35;;;;;;;7.93;3.88;;;;;;;16.30;94.28;94405.03;5051280;28;20273;-69
2022/06/12 00:18:03;;;;;;;7.60;3.97;;;;;;;16.26;94.69;94399.50;5050628;28;20224;-69
2022/06/12 00:20:31;;;;;;;4.55;3.40;;;;;;;16.24;95.07;94396.38;5050747;28;20224;-69
2022/06/12 00:23:00;;;;;;;9.25;4.15;;;;;;;16.22;95.36;94395.97;5050778;28;20203;-69
2022/06/12 00:25:31;;;;;;;7.72;4.35;;;;;;;16.22;95.49;94392.44;5051070;28;20261;-69
2022/06/12 00:27:58;;;;;;;4.93;3.45;;;;;;;16.23;95.62;94392.06;5050909;28;20287;-69
2022/06/12 00:30:26;;;;;;;6.85;4.10;;;;;;;16.17;95.81;94388.06;5050398;28;20227;-69
2022/06/12 00:32:55;;;;;;;4.80;3.67;;;;;;;16.20;96.04;94394.75;5050348;28;20289;-69
2022/06/12 00:35:24;;;;;;;5.63;3.90;;;;;;;16.25;95.49;94381.56;5050610;28;20416;-69
2022/06/12 00:37:52;;;;;;;6.28;4.07;;;;;;;16.25;95.40;94397.97;5050381;28;20658;-69
2022/06/12 00:40:21;;;;;;;5.32;3.80;;;;;;;16.26;95.69;94396.78;5050426;28;20219;-70
2022/06/12 00:42:50;;;;;;;8.52;4.00;;;;;;;16.23;95.91;94396.75;5050268;28;20694;-70
2022/06/12 00:45:34;;;;;;;5.32;3.75;;;;;;;16.30;95.54;94405.84;5054465;28;20257;-70
2022/06/12 00:48:05;;;;;;;9.07;4.13;;;;;;;16.27;95.35;94395.63;5039727;28;20227;-69
2022/06/12 00:50:33;;;;;;;5.70;3.58;;;;;;;16.24;95.54;94396.38;5050854;28;20285;-70
2022/06/12 00:53:00;;;;;;;6.75;5.53;;;;;;;16.26;95.46;94399.50;5050352;28;20239;-70
2022/06/12 00:55:35;;;;;;;5.63;3.78;;;;;;;16.19;96.14;94399.44;5050319;28;20199;-70
2022/06/12 00:58:05;;;;;;;6.88;4.80;;;;;;;16.18;96.61;94389.66;5050761;28;20203;-70
2022/06/12 01:00:34;;;;;;;5.88;3.97;;;;;;;16.19;96.44;94383.03;5050475;28;20863;-70
2022/06/12 01:03:01;;;;;;;7.28;4.00;;;;;;;16.11;96.79;94375.91;5050373;28;20224;-69
2022/06/12 01:08:15;;;;;;;10.48;4.50;;;;;;;16.19;95.86;94377.56;5053937;28;20589;-70
2022/06/12 01:10:47;;;;;;;6.57;4.38;;;;;;;16.21;96.00;94379.94;5053797;28;20654;-70
2022/06/12 01:13:19;;;;;;;5.75;4.05;;;;;;;16.17;96.20;94374.41;5054129;28;20628;-71
2022/06/12 01:15:48;;;;;;;7.00;4.10;;;;;;;16.14;96.36;94375.13;5054420;28;20219;-70
2022/06/12 01:18:19;;;;;;;10.48;4.65;;;;;;;16.15;96.60;94375.94;5054156;28;20196;-70
2022/06/12 01:20:53;;;;;;;8.35;4.40;;;;;;;16.11;96.25;94375.91;5054143;28;20197;-69
2022/06/12 01:23:53;;;;;;;7.13;4.65;;;;;;;16.09;96.91;94372.75;5053727;28;20331;-70
2022/06/12 01:26:51;;;;;;;5.00;4.22;;;;;;;16.09;96.93;94367.28;4996987;28;20205;-70
2022/06/12 01:29:26;;;;;;;10.18;4.20;;;;;;;16.07;97.28;94374.25;5053871;28;20681;-70
2022/06/12 01:32:01;;;;;;;7.50;4.65;;;;;;;15.99;97.21;94356.97;5053719;28;20234;-70
2022/06/12 01:34:40;;;;;;;7.28;4.38;;;;;;;16.03;97.06;94363.28;5053387;28;20231;-70
2022/06/12 01:37:28;;;;;;;7.32;4.25;;;;;;;16.03;96.84;94360.53;5052957;28;20220;-70
2022/06/12 01:40:06;;;;;;;5.65;4.03;;;;;;;16.03;96.49;94363.28;5042130;28;20312;-69
2022/06/12 01:42:47;;;;;;;13.60;4.20;;;;;;;16.03;96.40;94352.34;5053316;28;20257;-70
2022/06/12 01:45:23;;;;;;;4.68;3.50;;;;;;;15.97;96.16;94360.09;5058177;28;20219;-70
2022/06/12 01:47:59;;;;;;;5.05;4.03;;;;;;;16.04;95.97;94364.84;5039791;28;20206;-70
2022/06/12 01:50:35;;;;;;;4.53;3.58;;;;;;;16.01;94.91;94365.56;5053355;28;20199;-70
2022/06/12 01:53:09;;;;;;;6.13;4.47;;;;;;;16.05;94.45;94363.69;5053266;28;20281;-70
2022/06/12 01:55:45;;;;;;;5.28;3.78;;;;;;;16.07;93.96;94369.59;5053271;28;20613;-69
2022/06/12 01:58:19;;;;;;;6.55;5.18;;;;;;;16.13;93.04;94362.63;5053606;28;20274;-70
2022/06/12 02:00:55;;;;;;;7.38;5.22;;;;;;;16.14;93.21;94372.41;5053272;28;20281;-70
2022/06/12 02:03:29;;;;;;;7.13;5.90;;;;;;;16.21;92.37;94375.25;5052669;28;20196;-70
2022/06/12 02:06:03;;;;;;;5.90;4.15;;;;;;;16.19;93.08;94363.91;5053195;28;20306;-69
2022/06/12 02:08:37;;;;;;;8.63;4.20;;;;;;;16.18;92.90;94370.53;5053122;28;20295;-69
2022/06/12 02:13:55;;;;;;;4.80;3.70;;;;;;;16.20;93.28;94372.88;5039074;28;20235;-69
2022/06/12 02:16:28;;;;;;;6.03;4.22;;;;;;;16.19;93.18;94366.63;5053050;28;20269;-69
2022/06/12 02:19:01;;;;;;;5.93;4.15;;;;;;;16.14;93.91;94379.81;5052072;28;20772;-69
2022/06/12 02:21:33;;;;;;;5.65;4.25;;;;;;;16.13;93.65;94368.09;5053063;28;20223;-69
2022/06/12 02:24:05;;;;;;;7.13;5.30;;;;;;;16.08;94.08;94371.16;5052575;28;20617;-69
2022/06/12 02:26:37;;;;;;;7.13;5.38;;;;;;;16.04;94.22;94364.84;5052765;28;20618;-69
2022/06/12 02:29:10;;;;;;;6.20;4.20;;;;;;;16.11;93.80;94364.97;5052475;28;20288;-69
2022/06/12 02:31:42;;;;;;;4.93;3.63;;;;;;;16.07;93.69;94364.13;5040243;28;20633;-68
2022/06/12 02:34:14;;;;;;;5.32;3.75;;;;;;;16.07;94.03;94360.59;5052607;28;20712;-69
2022/06/12 02:36:45;;;;;;;5.40;4.07;;;;;;;16.15;93.59;94365.78;5052847;28;20277;-69
2022/06/12 02:39:17;;;;;;;5.68;4.47;;;;;;;16.09;93.38;94359.06;5051792;28;20239;-68
2022/06/12 02:41:50;;;;;;;5.50;4.20;;;;;;;16.07;93.58;94361.38;5052634;28;20254;-69
2022/06/12 02:44:23;;;;;;;6.93;4.25;;;;;;;16.11;93.68;94373.16;5056275;28;20215;-69
2022/06/12 02:46:58;;;;;;;5.53;4.07;;;;;;;16.10;93.59;94366.13;5052422;28;20192;-69
2022/06/12 02:49:25;;;;;;;4.25;3.28;;;;;;;16.10;94.10;94368.84;5052768;28;20254;-69
2022/06/12 02:51:56;;;;;;;6.32;3.53;;;;;;;16.07;93.82;94368.78;5052231;28;20674;-69
2022/06/12 02:54:35;;;;;;;6.22;4.03;;;;;;;16.05;94.25;94371.88;5039839;28;20216;-69
2022/06/12 02:57:11;;;;;;;5.72;3.70;;;;;;;16.06;94.47;94372.69;5052184;28;20261;-69
2022/06/12 02:59:52;;;;;;;3.30;2.83;;;;;;;16.09;93.58;94378.22;5052691;28;20277;-69
2022/06/12 03:02:30;;;;;;;5.95;4.25;;;;;;;16.06;93.49;94373.47;5052751;28;20219;-69
2022/06/12 03:05:03;;;;;;;6.57;4.40;;;;;;;16.06;93.58;94378.16;5052054;28;20767;-69
2022/06/12 03:07:30;;;;;;;5.43;4.18;;;;;;;16.06;94.22;94378.94;5051993;28;20200;-69
2022/06/12 03:10:00;;;;;;;6.88;5.05;;;;;;;16.09;94.06;94378.22;5051826;28;20203;-69
2022/06/12 03:12:28;;;;;;;5.43;3.90;;;;;;;16.11;94.00;94375.91;5052386;28;20293;-70
2022/06/12 03:14:55;;;;;;;6.57;4.68;;;;;;;16.09;93.79;94378.22;5051323;28;20255;-69
2022/06/12 03:17:23;;;;;;;8.70;4.45;;;;;;;16.03;94.46;94379.66;5052036;28;20211;-69
2022/06/12 03:19:54;;;;;;;6.25;4.32;;;;;;;16.00;94.73;94369.47;5051813;28;20796;-69
2022/06/12 03:22:29;;;;;;;5.30;3.88;;;;;;;15.98;94.60;94371.81;5051703;28;20675;-69
2022/06/12 03:25:08;;;;;;;7.18;3.88;;;;;;;15.90;95.02;94370.09;5051990;28;20227;-69
2022/06/12 03:27:55;;;;;;;5.45;3.97;;;;;;;16.02;94.91;94377.28;5051593;28;20570;-69
2022/06/12 03:30:30;;;;;;;9.95;5.95;;;;;;;15.98;94.87;94372.59;5051724;28;20274;-69
2022/06/12 03:33:07;;;;;;;5.93;4.25;;;;;;;15.99;94.35;94378.81;5051594;28;20235;-69
2022/06/12 03:35:46;;;;;;;6.38;4.13;;;;;;;16.07;94.77;94374.25;5051437;28;20219;-69
2022/06/12 03:38:20;;;;;;;7.35;4.57;;;;;;;16.12;94.67;94372.00;5040158;28;20249;-69
2022/06/12 03:40:57;;;;;;;9.13;4.75;;;;;;;16.15;94.28;94373.19;5051185;28;20196;-69
2022/06/12 03:43:33;;;;;;;7.28;4.65;;;;;;;16.25;93.81;94376.09;5052241;28;20223;-69
2022/06/12 03:46:10;;;;;;;7.95;6.07;;;;;;;16.22;93.37;94363.16;5051868;28;20666;-69
2022/06/12 03:48:43;;;;;;;7.88;5.82;;;;;;;16.24;93.67;94374.53;5051035;28;20202;-69
2022/06/12 03:51:16;;;;;;;6.97;4.75;;;;;;;16.26;93.17;94366.72;5051328;28;20205;-69
2022/06/12 03:53:48;;;;;;;5.72;4.20;;;;;;;16.42;92.92;94373.94;5051147;28;20215;-70
2022/06/12 03:59:12;;;;;;;11.05;5.10;;;;;;;16.70;91.64;94375.13;5037412;28;20202;-70
2022/06/12 04:01:41;;;;;;;5.93;4.90;;;;;;;16.75;90.61;94378.72;5050458;28;20228;-70
2022/06/12 04:04:10;;;;;;;7.38;4.55;;;;;;;16.79;90.37;94383.06;5051037;28;20273;-69
2022/06/12 04:06:37;;;;;;;6.88;4.45;;;;;;;16.80;90.67;94372.91;5051473;28;20256;-70
2022/06/12 04:09:12;;;;;;;6.43;4.35;;;;;;;16.71;90.60;94386.88;5051247;28;20265;-70
2022/06/12 04:11:41;;;;;;;7.18;5.00;;;;;;;16.66;90.79;94379.00;5050657;28;20628;-70
2022/06/12 04:14:14;;;;;;;7.63;4.70;;;;;;;16.70;90.78;94377.88;5050841;28;20242;-70
2022/06/12 04:16:46;;;;;;;8.10;5.20;;;;;;;16.72;91.40;94382.97;5050836;28;20625;-70
2022/06/12 04:19:17;;;;;;;8.43;6.72;;;;;;;16.86;91.12;94383.16;5050485;28;20223;-70
2022/06/12 04:21:49;;;;;;;11.88;7.38;;;;;;;16.80;90.88;94390.13;5037870;28;20203;-70
2022/06/12 04:24:20;;;;;;;9.65;7.10;;;;;;;16.70;91.33;94390.75;5050915;28;20250;-69
2022/06/12 04:26:50;;;;;;;7.95;5.45;;;;;;;16.64;91.96;94403.19;5051169;28;20315;-69
2022/06/12 04:29:24;;;;;;;8.90;4.70;;;;;;;16.79;91.48;94394.00;5050352;28;20224;-69
2022/06/12 04:31:56;;;;;;;7.53;5.30;;;;;;;16.83;91.41;94399.50;5050893;28;20241;-70
2022/06/12 04:34:26;;;;;;;9.15;5.38;;;;;;;16.81;91.21;94399.88;5050352;28;20693;-69
2022/06/12 04:36:55;;;;;;;7.55;5.30;;;;;;;16.71;91.43;94400.53;5050860;28;20191;-69
2022/06/12 04:39:30;;;;;;;7.22;5.30;;;;;;;16.66;91.88;94400.88;5050486;28;20605;-69
2022/06/12 04:41:57;;;;;;;9.23;7.90;;;;;;;16.70;91.52;94407.16;5049921;28;20293;-70
2022/06/12 04:44:25;;;;;;;7.18;5.25;;;;;;;16.77;91.41;94401.81;5042913;28;20199;-70
2022/06/12 04:46:55;;;;;;;9.10;5.40;;;;;;;16.75;91.51;94401.38;5050884;28;20215;-69
2022/06/12 04:49:25;;;;;;;7.80;5.72;;;;;;;16.73;91.75;94405.66;5037432;28;20196;-69
2022/06/12 04:51:55;;;;;;;7.35;4.60;;;;;;;16.62;91.99;94406.31;5050536;28;20624;-69
2022/06/12 04:54:23;;;;;;;7.13;5.30;;;;;;;16.66;92.26;94406.34;5050266;28;20281;-69
2022/06/12 04:56:50;;;;;;;9.65;5.10;;;;;;;16.71;92.00;94414.22;5050441;28;20207;-69
2022/06/12 04:59:19;;;;;;;8.75;5.70;;;;;;;16.80;91.22;94414.75;5050417;28;20279;-69
2022/06/12 05:01:47;;;;;;;10.07;5.70;;;;;;;16.89;90.30;94408.97;5050028;28;20232;-70
2022/06/12 05:04:13;;;;;;;9.00;5.85;;;;;;;16.89;90.11;94415.25;5050071;28;20758;-69
2022/06/12 05:06:43;;;;;;;6.93;5.30;;;;;;;17.08;89.44;94417.03;5050573;28;20204;-69
2022/06/12 05:09:11;;;;;;;11.35;5.53;;;;;;;17.17;88.63;94408.53;5050345;28;20235;-69
2022/06/12 05:11:39;;;;;;;6.95;5.15;;;;;;;17.65;88.09;94407.47;5050308;28;20756;-69
2022/06/12 05:14:06;;;;;;;6.65;4.82;;;;;;;17.66;86.83;94413.72;5049730;28;20714;-69
2022/06/12 05:16:35;;;;;;;7.15;4.57;;;;;;;17.63;86.50;94417.22;5050241;28;20270;-69
2022/06/12 05:19:04;;;;;;;8.07;6.50;;;;;;;17.70;86.87;94412.59;5050005;28;20212;-68
2022/06/12 05:21:32;;;;;;;9.07;6.85;;;;;;;17.69;86.02;94408.28;5050499;28;20223;-70
2022/06/12 05:24:01;;;;;;;8.02;7.07;;;;;;;17.70;86.27;94404.38;5050566;28;20212;-69
2022/06/12 05:26:30;;;;;;;7.43;5.38;;;;;;;17.82;86.14;94413.47;5049989;28;20728;-71
2022/06/12 05:28:57;;;;;;;11.68;5.50;;;;;;;17.98;85.10;94403.84;5050508;28;20227;-69
2022/06/12 05:31:24;;;;;;;8.93;6.38;;;;;;;18.19;84.36;94403.19;5049334;28;20224;-69
2022/06/12 05:33:53;;;;;;;9.00;6.18;;;;;;;18.21;83.90;94408.28;5049975;28;20247;-70
2022/06/12 05:36:21;;;;;;;6.40;4.80;;;;;;;18.15;84.21;94401.59;5036968;28;20195;-70
2022/06/12 05:38:48;;;;;;;17.70;10.13;;;;;;;18.27;83.80;94399.34;5050184;28;20246;-70
2022/06/12 05:41:16;;;;;;;6.38;4.55;;;;;;;18.07;83.23;94411.72;5050123;28;20226;-70
2022/06/12 05:43:43;;;;;;;5.85;4.25;;;;;;;18.02;83.72;94414.84;5052474;28;20534;-70
2022/06/12 05:46:11;;;;;;;8.48;5.15;;;;;;;18.04;83.96;94421.47;5049755;28;20254;-70
2022/06/12 05:48:40;;;;;;;6.20;4.32;;;;;;;17.95;84.45;94418.28;5049994;28;20250;-70
2022/06/12 05:51:10;;;;;;;7.53;5.10;;;;;;;17.85;84.07;94416.25;5050005;28;20306;-70
2022/06/12 05:53:37;;;;;;;5.80;4.10;;;;;;;17.85;84.33;94416.25;5050136;28;20706;-70
2022/06/12 05:56:07;;;;;;;6.75;4.10;;;;;;;17.91;84.22;94411.97;5052982;28;20234;-70
2022/06/12 05:58:36;;;;;;;8.63;4.85;;;;;;;17.86;84.30;94419.78;5053602;28;20234;-70
2022/06/12 06:01:05;;;;;;;5.88;4.25;;;;;;;17.99;84.31;94421.06;5053315;28;20219;-69
2022/06/12 06:03:31;;;;;;;5.78;4.50;;;;;;;18.13;84.51;94431.34;5053310;28;20204;-69
2022/06/12 06:05:58;;;;;;;6.43;4.60;;;;;;;18.08;84.50;94427.00;5052525;28;20800;-69
2022/06/12 06:08:25;;;;;;;6.13;4.40;;;;;;;18.18;84.66;94431.78;5052881;28;20222;-70
2022/06/12 06:10:52;;;;;;;7.25;4.72;;;;;;;18.00;85.52;94439.09;5044537;28;20224;-70
2022/06/12 06:13:20;;;;;;;7.88;5.32;;;;;;;17.95;86.90;94436.69;5052946;28;20227;-71
2022/06/12 06:15:50;;;;;;;7.40;6.40;;;;;;;17.89;86.07;94438.22;5052395;28;20241;-70
2022/06/12 06:18:18;;;;;;;8.18;6.88;;;;;;;17.97;87.15;94439.84;5052448;28;20204;-70
2022/06/12 06:20:45;;;;;;;8.65;6.57;;;;;;;17.88;86.85;94436.63;5052619;28;20887;-71
2022/06/12 06:23:12;;;;;;;8.48;6.43;;;;;;;17.86;86.59;94452.66;5052173;28;20733;-70
2022/06/12 06:25:40;;;;;;;6.60;4.65;;;;;;;17.95;87.10;94455.88;5047746;28;20228;-73
2022/06/12 06:28:08;;;;;;;6.88;5.03;;;;;;;17.87;86.59;94454.25;5052524;28;20215;-70
2022/06/12 06:30:36;;;;;;;7.88;5.47;;;;;;;17.91;86.45;94457.78;5052435;28;20207;-69
2022/06/12 06:33:05;;;;;;;9.93;5.50;;;;;;;17.90;86.49;94461.72;5052693;28;20196;-70
2022/06/12 06:35:32;;;;;;;7.50;5.25;;;;;;;17.96;86.46;94460.19;5053103;28;20231;-71
2022/06/12 06:37:59;;;;;;;8.35;5.30;;;;;;;18.03;85.62;94471.22;5039670;28;20270;-70
2022/06/12 06:40:29;;;;;;;8.32;4.75;;;;;;;18.00;85.57;94471.97;5052677;28;20211;-70
2022/06/12 06:42:56;;;;;;;6.45;5.00;;;;;;;17.96;85.08;94460.19;5039817;28;20199;-69
2022/06/12 06:48:12;;;;;;;7.93;5.55;;;;;;;18.27;84.87;94465.16;5052468;28;20712;-70
2022/06/12 06:50:40;;;;;;;9.23;6.97;;;;;;;18.57;84.32;94472.44;5052666;28;20261;-70
2022/06/12 06:53:07;;;;;;;7.25;5.10;;;;;;;18.52;83.60;94470.03;5051949;28;20616;-70
2022/06/12 06:55:34;;;;;;;6.85;5.15;;;;;;;18.39;83.57;94481.31;5052606;28;20235;-69
2022/06/12 06:58:01;;;;;;;6.65;4.65;;;;;;;18.46;84.13;94478.59;5052152;28;20220;-69
2022/06/12 07:00:30;;;;;;;9.40;5.43;;;;;;;18.48;83.65;94475.47;5052348;28;20204;-69
2022/06/12 07:02:57;;;;;;;7.82;5.30;;;;;;;18.51;82.95;94473.94;5052202;28;20261;-70
2022/06/12 07:05:26;;;;;;;7.45;5.35;;;;;;;18.69;84.07;94469.41;5051550;28;20227;-69
2022/06/12 07:07:53;;;;;;;9.20;5.47;;;;;;;18.72;83.28;94474.13;5051956;28;20224;-70
2022/06/12 07:10:23;;;;;;;10.38;6.72;;;;;;;18.67;83.36;94471.72;5051814;28;20211;-70
2022/06/12 07:12:51;;;;;;;8.18;6.55;;;;;;;18.73;82.66;94470.97;5051638;28;20227;-69
2022/06/12 07:15:19;;;;;;;8.10;6.78;;;;;;;18.67;83.51;94477.22;5038728;28;20690;-69
2022/06/12 07:17:47;;;;;;;7.90;5.53;;;;;;;18.67;83.73;94466.25;5051871;28;20585;-69
2022/06/12 07:20:17;;;;;;;8.00;6.95;;;;;;;18.81;84.29;94475.34;5051743;28;20710;-69
2022/06/12 07:22:46;;;;;;;7.93;5.03;;;;;;;18.75;84.01;94467.84;5051367;28;20281;-70
2022/06/12 07:25:14;;;;;;;8.20;5.55;;;;;;;18.92;83.95;94471.88;5052027;28;20234;-69
2022/06/12 07:27:42;;;;;;;9.43;6.72;;;;;;;18.89;83.66;94478.91;5051433;28;20246;-69
2022/06/12 07:30:13;;;;;;;8.60;6.80;;;;;;;18.94;82.58;94486.78;5051554;28;20224;-70
2022/06/12 07:32:40;;;;;;;6.72;6.03;;;;;;;18.95;83.51;94476.59;5052140;28;20216;-70
2022/06/12 07:35:08;;;;;;;8.85;6.30;;;;;;;18.98;82.57;94487.59;5051186;28;20242;-70
2022/06/12 07:37:37;;;;;;;10.05;6.30;;;;;;;19.01;83.10;94481.31;5051642;28;20672;-70
2022/06/12 07:40:08;;;;;;;6.40;4.88;;;;;;;18.95;82.07;94482.88;5051533;28;20208;-70
2022/06/12 07:42:35;;;;;;;7.60;5.18;;;;;;;18.93;82.90;94485.22;5051204;28;20254;-70
2022/06/12 07:45:02;;;;;;;9.73;5.53;;;;;;;18.96;82.54;94487.19;5055156;28;20253;-70
2022/06/12 07:47:29;;;;;;;7.25;4.80;;;;;;;18.97;83.29;94491.50;5051572;28;20261;-70
2022/06/12 07:49:56;;;;;;;8.38;5.60;;;;;;;18.89;83.78;94495.38;5050940;28;20369;-69
2022/06/12 07:52:24;;;;;;;5.85;4.70;;;;;;;19.08;83.53;94492.34;5051207;28;20192;-70
2022/06/12 07:54:51;;;;;;;6.57;5.03;;;;;;;19.14;83.34;94490.78;5050729;28;20227;-70
2022/06/12 07:57:19;;;;;;;8.57;5.05;;;;;;;19.28;83.32;94494.78;5050933;28;20227;-70
2022/06/12 07:59:46;;;;;;;7.47;5.22;;;;;;;19.38;83.17;94499.56;5051474;28;20212;-71
2022/06/12 08:02:13;;;;;;;8.27;6.90;;;;;;;19.35;82.02;94494.81;5051074;28;20203;-70
2022/06/12 08:04:40;;;;;;;11.65;5.38;;;;;;;19.59;82.51;94499.66;5051288;28;20204;-69
2022/06/12 08:07:07;;;;;;;10.35;7.80;;;;;;;19.57;82.05;94492.94;5050534;28;20227;-69
2022/06/12 08:09:34;;;;;;;8.07;7.00;;;;;;;19.46;81.53;94493.69;5051057;28;20207;-69
2022/06/12 08:12:01;;;;;;;13.25;8.00;;;;;;;19.48;82.09;94490.56;5037451;28;20216;-70
2022/06/12 08:14:29;;;;;;;10.05;6.50;;;;;;;19.62;80.59;94492.59;5050436;28;20302;-70
2022/06/12 08:16:56;;;;;;;7.97;6.05;;;;;;;19.40;81.99;94494.47;5050195;28;20648;-70
2022/06/12 08:22:09;;;;;;;8.95;6.68;;;;;;;19.45;83.12;94494.06;5050952;28;20297;-72
2022/06/12 08:24:37;;;;;;;11.43;5.53;;;;;;;19.48;82.11;94499.59;5049843;28;20239;-72
2022/06/12 08:27:05;;;;;;;6.05;5.30;;;;;;;19.61;82.32;94502.78;5049403;28;20292;-69
2022/06/12 08:29:33;;;;;;;6.82;6.00;;;;;;;19.65;83.44;94503.59;5048145;28;20203;-69
2022/06/12 08:32:04;;;;;;;7.95;6.72;;;;;;;19.76;84.36;94504.41;5050819;28;20239;-69
2022/06/12 08:34:36;;;;;;;8.05;6.30;;;;;;;19.78;83.29;94501.28;5046181;28;20270;-68
2022/06/12 08:37:07;;;;;;;7.40;6.07;;;;;;;20.02;83.23;94510.75;5039474;28;20180;-69
2022/06/12 08:39:34;;;;;;;6.70;6.00;;;;;;;19.99;84.41;94506.00;5036750;28;20593;-70
2022/06/12 08:42:09;;;;;;;11.38;6.53;;;;;;;20.31;87.14;94504.09;5050745;28;20199;-69
2022/06/12 08:44:48;;;;;;;7.85;6.57;;;;;;;20.60;83.34;94504.13;5044592;28;20282;-70
2022/06/12 08:47:22;;;;;;;6.30;5.20;;;;;;;20.48;79.47;94510.81;5049556;28;20238;-70
2022/06/12 08:49:55;;;;;;;7.47;6.18;;;;;;;20.71;81.41;94502.94;5040296;28;20211;-70
2022/06/12 08:52:28;;;;;;;6.40;5.70;;;;;;;20.53;79.08;94513.16;5043755;28;20309;-69
2022/06/12 08:55:02;;;;;;;7.25;5.05;;;;;;;20.75;79.88;94505.69;5043274;28;20219;-70
2022/06/12 08:57:37;;;;;;;7.75;6.32;;;;;;;20.83;78.17;94510.00;5037574;28;20251;-70
2022/06/12 09:00:12;;;;;;;8.68;6.57;;;;;;;20.98;78.96;94505.25;5050103;28;20699;-70
2022/06/12 09:02:41;;;;;;;9.90;7.28;;;;;;;20.83;77.50;94510.00;5050046;28;20681;-70
2022/06/12 09:05:12;;;;;;;6.07;5.18;;;;;;;20.78;77.70;94510.38;5048137;28;20235;-71
2022/06/12 09:07:45;;;;;;;7.40;5.63;;;;;;;20.73;76.56;94516.31;5049454;28;20261;-69
2022/06/12 09:10:20;;;;;;;5.93;5.05;;;;;;;20.52;78.37;94506.09;5049858;28;20280;-69
2022/06/12 09:12:52;;;;;;;6.32;5.13;;;;;;;20.32;78.52;94513.94;5049543;28;20653;-69
2022/06/12 09:15:32;;;;;;;6.20;5.25;;;;;;;20.27;79.82;94511.56;5036517;28;20235;-68
2022/06/12 09:18:07;;;;;;;7.57;5.78;;;;;;;20.47;79.18;94510.03;5049528;28;20692;-69
2022/06/12 09:20:46;;;;;;;7.75;5.32;;;;;;;20.71;80.57;94507.66;5049784;28;20301;-68
2022/06/12 09:23:24;;;;;;;6.32;5.25;;;;;;;20.54;80.48;94510.00;5049541;28;20570;-69
2022/06/12 09:25:57;;;;;;;6.00;5.28;;;;;;;20.68;81.07;94517.47;5050310;28;20292;-71
2022/06/12 09:28:37;;;;;;;5.63;4.70;;;;;;;21.08;79.22;94516.22;5052077;28;20254;-69
2022/06/12 09:31:10;;;;;;;6.78;5.07;;;;;;;21.28;77.14;94509.13;5053969;28;20231;-69
2022/06/12 09:33:48;;;;;;;6.00;4.72;;;;;;;21.41;77.82;94511.47;5054170;28;20273;-69
2022/06/12 09:36:33;;;;;;;6.28;4.88;;;;;;;21.57;78.48;94520.06;5054161;28;20280;-70
2022/06/12 09:39:08;;;;;;;6.82;5.40;;;;;;;22.01;77.58;94527.72;5053276;28;20614;-70
2022/06/12 09:41:45;;;;;;;7.32;5.60;;;;;;;22.07;77.86;94525.34;5053696;28;20198;-70
2022/06/12 09:44:16;;;;;;;5.03;4.53;;;;;;;21.47;76.75;94520.88;5056740;28;20226;-70
2022/06/12 09:46:58;;;;;;;5.63;4.93;;;;;;;21.38;78.08;94523.28;5053660;28;20640;-70
2022/06/12 09:49:35;;;;;;;6.70;4.63;;;;;;;20.71;77.62;94515.91;5041472;28;20223;-70
2022/06/12 09:52:33;;;;;;;5.07;4.47;;;;;;;20.27;77.58;94524.53;5053244;28;20220;-70
2022/06/12 09:55:06;;;;;;;5.25;4.45;;;;;;;20.22;77.77;94517.47;5032304;28;20290;-69
2022/06/12 09:57:41;;;;;;;14.05;9.60;;;;;;;19.91;81.63;94526.44;5041077;28;20257;-69
2022/06/12 10:00:16;;;;;;;6.40;5.15;;;;;;;19.91;80.21;94518.19;5053362;28;20223;-69
2022/06/12 10:02:51;;;;;;;6.75;4.75;;;;;;;19.85;81.19;94518.56;5053430;28;20223;-69
2022/06/12 10:05:24;;;;;;;6.03;5.30;;;;;;;19.87;81.79;94521.72;5053284;28;20191;-70
2022/06/12 10:07:58;;;;;;;5.95;4.95;;;;;;;19.96;81.96;94513.06;5053026;28;20655;-70
2022/06/12 10:10:33;;;;;;;6.03;4.78;;;;;;;19.75;81.99;94513.84;5040193;28;20206;-70
2022/06/12 10:13:07;;;;;;;7.00;4.60;;;;;;;19.88;81.97;94517.78;5053096;28;20321;-70
2022/06/12 10:15:39;;;;;;;5.93;4.85;;;;;;;19.86;82.88;94508.34;5053168;28;20239;-70
2022/06/12 10:18:13;;;;;;;8.90;5.20;;;;;;;19.97;82.63;94509.16;5053414;28;20235;-70
2022/06/12 10:20:44;;;;;;;6.55;5.32;;;;;;;20.38;84.10;94512.38;5053042;28;20218;-69
2022/06/12 10:23:12;;;;;;;5.60;4.85;;;;;;;20.73;83.53;94511.59;5052659;28;20196;-69
2022/06/12 10:25:41;;;;;;;7.80;5.38;;;;;;;20.71;82.85;94507.66;5052374;28;20269;-68
2022/06/12 10:28:23;;;;;;;5.18;4.68;;;;;;;20.49;80.37;94507.69;5052186;28;20625;-70
2022/06/12 10:31:05;;;;;;;6.55;5.18;;;;;;;20.56;78.78;94507.66;5051516;28;20227;-69
2022/06/12 10:33:47;;;;;;;6.25;5.20;;;;;;;20.77;79.43;94500.56;5053066;28;20196;-69
2022/06/12 10:36:20;;;;;;;7.90;5.07;;;;;;;20.56;80.25;94502.16;5052358;28;20220;-69
2022/06/12 10:38:48;;;;;;;6.97;4.55;;;;;;;20.78;78.61;94499.38;5051928;28;20306;-69
2022/06/12 10:41:23;;;;;;;11.05;7.57;;;;;;;20.78;78.94;94496.63;5051239;28;20574;-69
2022/06/12 10:43:52;;;;;;;6.57;4.60;;;;;;;20.70;79.22;94497.81;5055631;28;20217;-69
2022/06/12 10:46:23;;;;;;;4.75;4.28;;;;;;;20.98;78.22;94489.50;5052271;28;20510;-71
2022/06/12 10:49:03;;;;;;;6.05;4.28;;;;;;;21.40;76.77;94498.84;5052345;28;20772;-71
2022/06/12 10:51:36;;;;;;;4.75;4.03;;;;;;;21.74;75.64;94491.59;5052330;28;20231;-71
2022/06/12 10:54:14;;;;;;;5.63;4.18;;;;;;;22.02;73.52;94498.16;5052404;28;20191;-71
2022/06/12 10:56:47;;;;;;;4.82;4.30;;;;;;;22.66;70.76;94491.00;5051819;28;20219;-71
2022/06/12 10:59:30;;;;;;;5.55;4.38;;;;;;;23.32;68.95;94487.97;5039691;28;20230;-72
2022/06/12 11:02:21;;;;;;;4.20;3.70;;;;;;;24.15;68.03;94482.97;5051548;28;20702;-70
2022/06/12 11:05:00;;;;;;;4.90;4.40;;;;;;;24.30;67.36;94489.09;5051886;28;20634;-70
2022/06/12 11:07:38;;;;;;;4.40;3.83;;;;;;;24.51;67.13;94483.22;5052446;28;20318;-71
2022/06/12 11:10:19;;;;;;;4.38;3.97;;;;;;;24.33;63.23;94482.72;5050995;28;20234;-70
2022/06/12 11:13:06;;;;;;;4.40;4.00;;;;;;;24.24;67.28;94486.00;5051791;28;20204;-71
2022/06/12 11:15:56;;;;;;;4.20;3.80;;;;;;;25.24;64.67;94474.03;5040585;28;20640;-70
2022/06/12 11:18:33;;;;;;;5.35;3.88;;;;;;;25.55;61.34;94482.16;5051971;28;20188;-70
2022/06/12 11:21:14;;;;;;;4.32;3.85;;;;;;;24.98;59.74;94483.25;5051277;28;20935;-72
2022/06/12 11:24:03;;;;;;;6.20;3.78;;;;;;;24.92;59.35;94487.66;5052115;28;20235;-71
2022/06/12 11:26:42;;;;;;;5.88;3.80;;;;;;;24.45;60.96;94490.44;5051488;28;20227;-72
2022/06/12 11:29:20;;;;;;;4.55;2.97;;;;;;;24.60;59.53;94486.22;5051840;28;20223;-71
2022/06/12 11:32:00;;;;;;;4.10;3.25;;;;;;;25.22;57.53;94482.00;5051643;28;20238;-73
2022/06/12 11:34:48;;;;;;;4.10;3.70;;;;;;;25.64;57.20;94468.53;5051474;28;20204;-70
2022/06/12 11:37:34;;;;;;;7.35;4.22;;;;;;;25.91;58.78;94471.91;5051401;28;20277;-73
2022/06/12 11:40:08;;;;;;;6.03;4.32;;;;;;;25.41;58.69;94472.94;5050747;28;20267;-72
2022/06/12 11:42:47;;;;;;;8.20;4.07;;;;;;;24.44;60.33;94483.34;5050748;28;20310;-71
2022/06/12 11:45:21;;;;;;;4.85;3.92;;;;;;;24.68;58.39;94476.59;5054216;28;20241;-72
2022/06/12 11:48:01;;;;;;;7.85;4.35;;;;;;;25.56;59.07;94469.88;5051294;28;20228;-71
2022/06/12 11:50:36;;;;;;;5.00;4.40;;;;;;;25.71;57.13;94468.34;5051222;28;20227;-71
2022/06/12 11:53:19;;;;;;;5.82;4.72;;;;;;;25.80;60.69;94465.81;5051133;28;20253;-71
2022/06/12 11:55:51;;;;;;;4.00;3.40;;;;;;;25.89;57.02;94466.00;5051528;28;20289;-71
2022/06/12 11:58:41;;;;;;;4.30;3.90;;;;;;;26.07;59.57;94463.63;5050891;28;20203;-71
2022/06/12 12:01:14;;;;;;;6.20;3.78;;;;;;;25.85;60.02;94462.50;5051170;28;20247;-71
2022/06/12 12:04:14;;;;;;;9.20;6.20;;;;;;;25.91;59.43;94465.56;5050424;28;20231;-71
2022/06/12 12:06:55;;;;;;;5.63;4.47;;;;;;;25.33;57.81;94460.38;5051312;28;20203;-71
2022/06/12 12:09:36;;;;;;;4.88;4.35;;;;;;;24.04;61.97;94466.53;5051128;28;20338;-70